createdAt,value
2023-01-19T00:04:01.499Z,-0.25
2023-01-19T00:09:04.352Z,-0.22
2023-01-19T00:14:08.465Z,-0.27
2023-01-19T00:19:12.510Z,-0.25
2023-01-19T00:24:15.455Z,-0.32
2023-01-19T00:29:20.329Z,-0.32
2023-01-19T00:34:23.377Z,-0.32
2023-01-19T00:39:26.149Z,-0.34
2023-01-19T00:44:30.268Z,-0.24
2023-01-19T00:49:33.005Z,-0.27
2023-01-19T00:54:35.818Z,-0.30
2023-01-19T00:59:39.946Z,-0.14
2023-01-19T01:04:42.706Z,-0.10
2023-01-19T01:09:45.479Z,-0.05
2023-01-19T01:14:49.903Z,-0.11
2023-01-19T01:19:52.663Z,-0.04
2023-01-19T01:24:55.417Z,0.05
2023-01-19T01:29:59.498Z,0.04
2023-01-19T01:35:02.249Z,0.05
2023-01-19T01:40:05.789Z,0.13
2023-01-19T01:45:24.540Z,0.21
2023-01-19T01:50:29.539Z,0.23
2023-01-19T01:55:32.513Z,0.23
2023-01-19T02:00:50.896Z,0.29
2023-01-19T02:05:57.521Z,0.24
2023-01-19T02:11:19.440Z,0.31
2023-01-19T02:16:23.640Z,0.36
2023-01-19T02:21:32.989Z,0.36
2023-01-19T02:26:40.170Z,0.33
2023-01-19T02:31:43.282Z,0.44
2023-01-19T02:36:50.271Z,0.45
2023-01-19T02:41:56.854Z,0.49
2023-01-19T02:46:59.665Z,0.50
2023-01-19T02:52:02.621Z,0.44
2023-01-19T02:57:31.349Z,0.49
2023-01-19T03:02:38.886Z,0.49
2023-01-19T03:07:50.379Z,0.56
2023-01-19T03:13:00.961Z,0.55
2023-01-19T03:18:05.119Z,0.57
2023-01-19T03:23:11.402Z,0.60
2023-01-19T03:28:16.149Z,0.64
2023-01-19T03:33:26.080Z,0.58
2023-01-19T03:38:30.133Z,0.53
2023-01-19T03:43:35.077Z,0.57
2023-01-19T03:48:38.459Z,0.53
2023-01-19T03:53:41.406Z,0.56
2023-01-19T03:58:45.722Z,0.58
2023-01-19T04:03:48.497Z,0.58
2023-01-19T04:08:52.103Z,0.60
2023-01-19T04:13:56.222Z,0.60
2023-01-19T04:18:58.971Z,0.66
2023-01-19T04:24:01.716Z,0.72
2023-01-19T04:29:05.824Z,0.72
2023-01-19T04:34:08.571Z,0.69
2023-01-19T04:39:11.719Z,0.75
2023-01-19T04:44:15.999Z,0.78
2023-01-19T04:49:18.739Z,0.78
2023-01-19T04:54:21.751Z,0.84
2023-01-19T04:59:25.868Z,0.86
2023-01-19T05:04:28.686Z,0.94
2023-01-19T05:09:31.458Z,0.93
2023-01-19T05:14:35.580Z,0.86
2023-01-19T05:19:38.365Z,1.03
2023-01-19T05:24:41.442Z,1.00
2023-01-19T05:29:45.525Z,1.05
2023-01-19T05:34:48.253Z,1.02
2023-01-19T05:39:50.970Z,1.06
2023-01-19T05:44:55.048Z,0.99
2023-01-19T05:49:57.798Z,1.01
2023-01-19T05:55:00.522Z,0.80
2023-01-19T06:00:05.575Z,0.52
2023-01-19T06:05:11.960Z,0.44
2023-01-19T06:10:14.686Z,0.32
2023-01-19T06:15:19.155Z,0.21
2023-01-19T06:20:21.899Z,0.19
2023-01-19T06:25:25.965Z,0.16
2023-01-19T06:30:30.196Z,0.15
2023-01-19T06:35:32.982Z,0.15
2023-01-19T06:40:35.894Z,0.13
2023-01-19T06:45:40.270Z,0.12
2023-01-19T06:50:45.965Z,0.12
2023-01-19T06:55:48.825Z,0.09
2023-01-19T07:00:53.222Z,0.14
2023-01-19T07:05:56.861Z,0.17
2023-01-19T07:11:22.362Z,0.12
2023-01-19T07:16:25.238Z,0.13
2023-01-19T07:21:29.291Z,0.08
2023-01-19T07:26:32.165Z,0.07
2023-01-19T07:31:36.331Z,0.08
2023-01-19T07:36:39.071Z,0.14
2023-01-19T07:41:41.801Z,0.12
2023-01-19T07:46:45.871Z,0.11
2023-01-19T07:51:48.594Z,0.15
2023-01-19T07:56:54.603Z,0.17
2023-01-19T08:01:59.444Z,0.16
2023-01-19T08:07:03.795Z,0.22
2023-01-19T08:12:06.913Z,0.87
2023-01-19T08:17:13.834Z,1.64
2023-01-19T08:22:16.633Z,1.59
2023-01-19T08:27:19.364Z,0.73
2023-01-19T08:32:23.438Z,0.28
2023-01-19T08:37:26.173Z,0.23
2023-01-19T08:42:28.884Z,0.18
2023-01-19T08:47:33.095Z,0.14
2023-01-19T08:52:35.923Z,0.07
2023-01-19T08:57:39.648Z,0.09
2023-01-19T09:02:43.868Z,0.04
2023-01-19T09:07:48.046Z,0.02
2023-01-19T09:12:50.789Z,0.07
2023-01-19T09:17:54.850Z,0.05
2023-01-19T09:22:57.689Z,0.03
2023-01-19T09:28:00.837Z,0.08
2023-01-19T09:33:07.534Z,0.15
2023-01-19T09:38:11.039Z,0.22
2023-01-19T09:43:15.832Z,0.24
2023-01-19T09:48:32.242Z,0.26
2023-01-19T09:53:47.891Z,0.26
2023-01-19T09:58:51.927Z,0.27
2023-01-19T10:04:19.072Z,0.32
2023-01-19T10:09:27.275Z,0.34
2023-01-19T10:14:34.169Z,0.39
2023-01-19T10:19:39.511Z,0.32
2023-01-19T10:24:43.669Z,0.13
2023-01-19T10:29:46.806Z,0.12
2023-01-19T10:34:51.741Z,0.17
2023-01-19T10:39:56.589Z,0.20
2023-01-19T10:44:59.433Z,0.33
2023-01-19T10:50:08.474Z,0.43
2023-01-19T10:55:25.293Z,0.37
2023-01-19T11:00:37.701Z,0.46
2023-01-19T11:05:42.091Z,0.56
2023-01-19T11:10:53.660Z,0.58
2023-01-19T11:15:58.006Z,0.69
2023-01-19T11:21:03.689Z,0.72
2023-01-19T11:26:06.773Z,0.82
2023-01-19T11:31:19.263Z,0.91
2023-01-19T11:36:25.399Z,0.99
2023-01-19T11:41:29.694Z,0.98
2023-01-19T11:46:34.580Z,0.99
2023-01-19T11:51:47.674Z,1.07
2023-01-19T11:56:52.136Z,1.19
2023-01-19T12:01:57.737Z,1.27
2023-01-19T12:07:07.434Z,1.35
2023-01-19T12:12:13.875Z,1.36
2023-01-19T12:17:26.971Z,1.46
2023-01-19T12:22:35.607Z,1.45
2023-01-19T12:27:41.365Z,1.40
2023-01-19T12:32:44.107Z,1.34
2023-01-19T12:37:48.383Z,1.31
2023-01-19T12:42:57.760Z,1.36
2023-01-19T12:48:01.917Z,1.41
2023-01-19T12:53:08.360Z,1.47
2023-01-19T12:58:17.723Z,1.42
2023-01-19T13:03:44.148Z,1.50
2023-01-19T13:09:01.632Z,1.49
2023-01-19T13:14:37.020Z,1.51
2023-01-19T13:19:50.525Z,1.55
2023-01-19T13:25:08.851Z,1.58
2023-01-19T13:30:13.276Z,1.47
2023-01-19T13:35:18.884Z,1.49
2023-01-19T13:40:24.147Z,1.54
2023-01-19T13:45:30.347Z,1.47
2023-01-19T13:50:35.449Z,1.51
2023-01-19T13:55:39.498Z,1.45
2023-01-19T14:00:46.950Z,1.45
2023-01-19T14:05:52.339Z,1.46
2023-01-19T14:11:03.221Z,1.53
2023-01-19T14:16:08.535Z,1.56
2023-01-19T14:21:12.816Z,1.56
2023-01-19T14:26:46.460Z,1.58
2023-01-19T14:31:51.497Z,1.52
2023-01-19T14:36:54.282Z,1.53
2023-01-19T14:41:59.976Z,1.45
2023-01-19T14:47:03.123Z,1.40
2023-01-19T14:52:07.945Z,1.43
2023-01-19T14:57:14.041Z,1.40
2023-01-19T15:02:18.510Z,1.34
2023-01-19T15:07:21.855Z,1.36
2023-01-19T15:12:26.793Z,1.29
2023-01-19T15:17:29.440Z,1.31
2023-01-19T15:22:32.139Z,1.26
2023-01-19T15:27:36.300Z,1.24
2023-01-19T15:32:43.630Z,1.28
2023-01-19T15:37:46.365Z,1.19
2023-01-19T15:42:50.647Z,1.16
2023-01-19T15:47:53.331Z,1.15
2023-01-19T15:52:56.021Z,1.12
2023-01-19T15:58:02.404Z,1.08
2023-01-19T16:03:23.336Z,1.11
2023-01-19T16:08:26.054Z,1.13
2023-01-19T16:13:31.027Z,1.10
2023-01-19T16:18:34.031Z,1.09
2023-01-19T16:23:36.737Z,1.05
2023-01-19T16:28:40.791Z,1.04
2023-01-19T16:33:43.728Z,1.01
2023-01-19T16:38:46.482Z,0.96
2023-01-19T16:43:54.375Z,0.87
2023-01-19T16:49:00.319Z,0.76
2023-01-19T16:54:03.165Z,0.68
2023-01-19T16:59:07.322Z,0.70
2023-01-19T17:04:11.163Z,0.65
2023-01-19T17:09:14.475Z,0.56
2023-01-19T17:14:20.854Z,0.52
2023-01-19T17:19:23.541Z,0.46
2023-01-19T17:24:26.225Z,0.41
2023-01-19T17:29:30.277Z,0.42
2023-01-19T17:34:33.575Z,0.38
2023-01-19T17:39:37.316Z,0.35
2023-01-19T17:44:42.346Z,0.43
2023-01-19T17:49:44.983Z,0.36
2023-01-19T17:54:47.676Z,0.39
2023-01-19T17:59:51.728Z,0.31
2023-01-19T18:04:54.486Z,0.40
2023-01-19T18:09:58.268Z,0.34
2023-01-19T18:15:04.080Z,0.31
2023-01-19T18:20:07.949Z,0.23
2023-01-19T18:25:10.768Z,0.21
2023-01-19T18:30:16.218Z,0.16
2023-01-19T18:35:19.124Z,0.12
2023-01-19T18:40:21.976Z,0.11
2023-01-19T18:45:26.090Z,0.08
2023-01-19T18:50:28.884Z,0.02
2023-01-19T18:55:31.567Z,0.03
2023-01-19T19:00:35.773Z,0.00
2023-01-19T19:05:38.686Z,0.03
2023-01-19T19:10:42.128Z,-0.10
2023-01-19T19:15:46.184Z,-0.06
2023-01-19T19:20:48.902Z,-0.01
2023-01-19T19:25:51.599Z,0.03
2023-01-19T19:31:06.289Z,-0.02
2023-01-19T19:36:10.652Z,-0.14
2023-01-19T19:41:15.846Z,-0.20
2023-01-19T19:46:21.495Z,-0.13
2023-01-19T19:51:26.995Z,-0.12
2023-01-19T19:56:31.332Z,-0.17
2023-01-19T20:01:35.509Z,-0.23
2023-01-19T20:06:40.988Z,-0.25
2023-01-19T20:11:44.600Z,-0.28
2023-01-19T20:16:48.788Z,-0.31
2023-01-19T20:21:51.508Z,-0.32
2023-01-19T20:26:56.205Z,-0.37
2023-01-19T20:32:00.319Z,-0.41
2023-01-19T20:37:04.654Z,-0.43
2023-01-19T20:42:11.176Z,-0.36
2023-01-19T20:47:15.234Z,-0.36
2023-01-19T20:52:17.929Z,-0.37
2023-01-19T20:57:20.615Z,-0.49
2023-01-19T21:02:28.368Z,-0.50
2023-01-19T21:07:31.212Z,-0.49
2023-01-19T21:12:33.875Z,-0.50
2023-01-19T21:17:38.018Z,-0.60
2023-01-19T21:22:40.906Z,-0.54
2023-01-19T21:27:43.587Z,-0.60
2023-01-19T21:32:47.625Z,-0.60
2023-01-19T21:37:50.568Z,-0.52
2023-01-19T21:42:53.916Z,-0.41
2023-01-19T21:47:57.955Z,-0.41
2023-01-19T21:53:00.811Z,-0.39
2023-01-19T21:58:03.562Z,-0.37
2023-01-19T22:03:07.717Z,-0.32
2023-01-19T22:08:10.550Z,-0.38
2023-01-19T22:13:13.304Z,-0.43
2023-01-19T22:18:17.344Z,-0.47
2023-01-19T22:23:20.040Z,-0.38
2023-01-19T22:28:22.880Z,-0.32
2023-01-19T22:33:29.030Z,-0.40
2023-01-19T22:38:31.722Z,-0.51
2023-01-19T22:43:34.426Z,-0.48
2023-01-19T22:48:40.321Z,-0.54
2023-01-19T22:53:43.061Z,-0.60
2023-01-19T22:58:46.632Z,-0.51
2023-01-19T23:03:51.259Z,-0.57
2023-01-19T23:08:55.770Z,-0.60
2023-01-19T23:13:59.238Z,-0.57
2023-01-19T23:19:03.306Z,-0.56
2023-01-19T23:24:06.576Z,-0.43
2023-01-19T23:29:13.130Z,-0.45
2023-01-19T23:34:17.509Z,-0.36
2023-01-19T23:39:21.754Z,-0.32
2023-01-19T23:44:24.499Z,-0.32
2023-01-19T23:49:28.695Z,-0.22
2023-01-19T23:54:31.374Z,-0.27
2023-01-19T23:59:34.110Z,-0.26
